FPO8SN EINN-EIDW
Flight info
| Callsign | FPO8SN |
|---|---|
| Flight time | 0h 38m |
| Altitude | 23000 |
| Route | AGINI3B AGINI DCT OSGAR OSGAR4L |
| Aircraft | B738/M-SDE2E3FGHIRWXY/LB1 |
Departure
| Time | 2026-05-07 04:56 |
|---|---|
| Airport | Shannon Airport (EINN) |
Arrival
| Time | 2026-05-07 05:34 |
|---|---|
| Airport | Dublin Airport (EIDW) |
| Time | Latitude | Longitude | Altitude | Speed | Heading |
|---|---|---|---|---|---|
| 2026-05-07 04:20 | 52.69136 | -8.91501 | 24 ft | 0 kts | 178° |
| 2026-05-07 04:46 | 52.69145 | -8.91502 | 22 ft | 4 kts | 185° |
| 2026-05-07 04:46 | 52.69169 | -8.91493 | 22 ft | 4 kts | 199° |
| 2026-05-07 04:46 | 52.69190 | -8.91484 | 25 ft | 4 kts | 171° |
| 2026-05-07 04:47 | 52.69208 | -8.91505 | 26 ft | 4 kts | 121° |
| 2026-05-07 04:47 | 52.69217 | -8.91529 | 23 ft | 0 kts | 132° |
| 2026-05-07 04:51 | 52.69217 | -8.91528 | 23 ft | 1 kts | 132° |
| 2026-05-07 04:51 | 52.69186 | -8.91523 | 24 ft | 6 kts | 241° |
| 2026-05-07 04:52 | 52.69210 | -8.91573 | 25 ft | 10 kts | 356° |
| 2026-05-07 04:52 | 52.69304 | -8.91501 | 23 ft | 19 kts | 21° |
| 2026-05-07 04:52 | 52.69458 | -8.91416 | 22 ft | 25 kts | 18° |
| 2026-05-07 04:52 | 52.69616 | -8.91328 | 23 ft | 23 kts | 20° |
| 2026-05-07 04:53 | 52.69775 | -8.91242 | 22 ft | 28 kts | 18° |
| 2026-05-07 04:53 | 52.69894 | -8.91175 | 23 ft | 22 kts | 21° |
| 2026-05-07 04:53 | 52.70084 | -8.91069 | 23 ft | 21 kts | 18° |
| 2026-05-07 04:53 | 52.70232 | -8.90987 | 22 ft | 24 kts | 19° |
| 2026-05-07 04:54 | 52.70347 | -8.90924 | 22 ft | 27 kts | 17° |
| 2026-05-07 04:54 | 52.70518 | -8.90830 | 22 ft | 25 kts | 20° |
| 2026-05-07 04:54 | 52.70725 | -8.90711 | 22 ft | 23 kts | 19° |
| 2026-05-07 04:54 | 52.70878 | -8.90665 | 22 ft | 22 kts | 342° |
| 2026-05-07 04:55 | 52.70969 | -8.90847 | 22 ft | 22 kts | 256° |
| 2026-05-07 04:55 | 52.70909 | -8.90987 | 23 ft | 25 kts | 231° |
| 2026-05-07 04:55 | 52.70668 | -8.91496 | 25 ft | 94 kts | 232° |
| 2026-05-07 04:55 | 52.70128 | -8.92635 | 34 ft | 156 kts | 231° |
| 2026-05-07 04:56 | 52.69402 | -8.94214 | 420 ft | 181 kts | 233° |
| 2026-05-07 04:56 | 52.68687 | -8.96059 | 967 ft | 203 kts | 250° |
| 2026-05-07 04:56 | 52.68766 | -8.98389 | 1513 ft | 213 kts | 294° |
| 2026-05-07 04:56 | 52.69579 | -9.00521 | 1959 ft | 230 kts | 302° |
| 2026-05-07 04:57 | 52.70450 | -9.02847 | 2443 ft | 247 kts | 297° |
| 2026-05-07 04:57 | 52.71255 | -9.05401 | 3196 ft | 255 kts | 299° |
| 2026-05-07 04:57 | 52.72514 | -9.07494 | 4045 ft | 264 kts | 327° |
| 2026-05-07 04:57 | 52.74266 | -9.08397 | 4916 ft | 270 kts | 356° |
| 2026-05-07 04:58 | 52.76136 | -9.07842 | 5650 ft | 279 kts | 18° |
| 2026-05-07 04:58 | 52.77987 | -9.06738 | 6402 ft | 287 kts | 20° |
| 2026-05-07 04:58 | 52.79858 | -9.05559 | 7200 ft | 289 kts | 20° |
| 2026-05-07 04:58 | 52.81735 | -9.04376 | 8099 ft | 288 kts | 20° |
| 2026-05-07 04:59 | 52.83614 | -9.03204 | 8947 ft | 290 kts | 19° |
| 2026-05-07 04:59 | 52.85512 | -9.02031 | 9795 ft | 292 kts | 19° |
| 2026-05-07 04:59 | 52.87423 | -9.00859 | 10543 ft | 295 kts | 19° |
| 2026-05-07 04:59 | 52.89363 | -8.99674 | 11258 ft | 299 kts | 19° |
| 2026-05-07 05:00 | 52.91331 | -8.98473 | 12013 ft | 303 kts | 19° |
| 2026-05-07 05:00 | 52.93323 | -8.97258 | 12779 ft | 307 kts | 18° |
| 2026-05-07 05:00 | 52.95309 | -8.95879 | 13530 ft | 314 kts | 31° |
| 2026-05-07 05:00 | 52.96944 | -8.93452 | 14265 ft | 319 kts | 47° |
| 2026-05-07 05:01 | 52.98418 | -8.90680 | 15016 ft | 322 kts | 49° |
| 2026-05-07 05:01 | 52.99891 | -8.87842 | 15756 ft | 326 kts | 49° |
| 2026-05-07 05:01 | 53.01377 | -8.84979 | 16508 ft | 330 kts | 49° |
| 2026-05-07 05:01 | 53.02889 | -8.82082 | 17262 ft | 333 kts | 49° |
| 2026-05-07 05:02 | 53.04420 | -8.79163 | 18006 ft | 337 kts | 50° |
| 2026-05-07 05:02 | 53.05973 | -8.76210 | 18676 ft | 341 kts | 50° |
| 2026-05-07 05:02 | 53.07536 | -8.73243 | 19374 ft | 342 kts | 50° |
| 2026-05-07 05:02 | 53.09111 | -8.70255 | 20064 ft | 344 kts | 49° |
| 2026-05-07 05:03 | 53.10696 | -8.67244 | 20727 ft | 347 kts | 50° |
| 2026-05-07 05:03 | 53.12291 | -8.64211 | 21387 ft | 350 kts | 50° |
| 2026-05-07 05:03 | 53.13888 | -8.61143 | 22038 ft | 352 kts | 53° |
| 2026-05-07 05:03 | 53.15032 | -8.57547 | 22645 ft | 353 kts | 75° |
| 2026-05-07 05:04 | 53.15345 | -8.53491 | 22954 ft | 361 kts | 95° |
| 2026-05-07 05:04 | 53.15086 | -8.49240 | 22985 ft | 376 kts | 98° |
| 2026-05-07 05:04 | 53.14726 | -8.44841 | 22974 ft | 391 kts | 99° |
| 2026-05-07 05:04 | 53.14329 | -8.40274 | 22976 ft | 405 kts | 99° |
| 2026-05-07 05:05 | 53.13921 | -8.35552 | 22973 ft | 418 kts | 99° |
| 2026-05-07 05:05 | 53.13512 | -8.30684 | 22973 ft | 430 kts | 99° |
| 2026-05-07 05:05 | 53.13104 | -8.25700 | 22967 ft | 437 kts | 98° |
| 2026-05-07 05:05 | 53.12701 | -8.20687 | 22951 ft | 436 kts | 98° |
| 2026-05-07 05:06 | 53.12303 | -8.15697 | 22951 ft | 434 kts | 98° |
| 2026-05-07 05:06 | 53.11906 | -8.10719 | 22949 ft | 433 kts | 98° |
| 2026-05-07 05:06 | 53.11509 | -8.05760 | 22953 ft | 432 kts | 98° |
| 2026-05-07 05:06 | 53.11110 | -8.00807 | 22955 ft | 432 kts | 98° |
| 2026-05-07 05:07 | 53.10709 | -7.95853 | 22957 ft | 431 kts | 98° |
| 2026-05-07 05:07 | 53.10306 | -7.90909 | 22963 ft | 431 kts | 98° |
| 2026-05-07 05:07 | 53.09902 | -7.85989 | 22964 ft | 431 kts | 98° |
| 2026-05-07 05:07 | 53.09496 | -7.81065 | 22963 ft | 431 kts | 98° |
| 2026-05-07 05:08 | 53.09086 | -7.76120 | 22964 ft | 432 kts | 98° |
| 2026-05-07 05:08 | 53.08670 | -7.71128 | 22965 ft | 432 kts | 98° |
| 2026-05-07 05:08 | 53.08256 | -7.66188 | 22967 ft | 432 kts | 98° |
| 2026-05-07 05:08 | 53.07839 | -7.61240 | 22967 ft | 432 kts | 98° |
| 2026-05-07 05:09 | 53.07426 | -7.56350 | 22947 ft | 420 kts | 98° |
| 2026-05-07 05:09 | 53.07023 | -7.51606 | 22952 ft | 410 kts | 99° |
| 2026-05-07 05:09 | 53.06624 | -7.46933 | 22960 ft | 408 kts | 99° |
| 2026-05-07 05:09 | 53.06223 | -7.42267 | 22969 ft | 408 kts | 99° |
| 2026-05-07 05:10 | 53.05819 | -7.37579 | 22597 ft | 409 kts | 99° |
| 2026-05-07 05:10 | 53.05418 | -7.32944 | 22128 ft | 403 kts | 99° |
| 2026-05-07 05:10 | 53.05019 | -7.28358 | 21640 ft | 398 kts | 99° |
| 2026-05-07 05:10 | 53.04641 | -7.23830 | 21121 ft | 394 kts | 98° |
| 2026-05-07 05:11 | 53.04302 | -7.19322 | 20613 ft | 391 kts | 98° |
| 2026-05-07 05:11 | 53.03978 | -7.14853 | 20116 ft | 388 kts | 98° |
| 2026-05-07 05:11 | 53.03657 | -7.10426 | 19621 ft | 385 kts | 98° |
| 2026-05-07 05:11 | 53.03334 | -7.06025 | 19139 ft | 382 kts | 98° |
| 2026-05-07 05:12 | 53.03009 | -7.01665 | 18661 ft | 380 kts | 98° |
| 2026-05-07 05:12 | 53.02681 | -6.97323 | 18169 ft | 378 kts | 99° |
| 2026-05-07 05:12 | 53.02352 | -6.92999 | 17618 ft | 377 kts | 99° |
| 2026-05-07 05:12 | 53.02022 | -6.88679 | 17107 ft | 377 kts | 99° |
| 2026-05-07 05:13 | 53.01691 | -6.84378 | 16602 ft | 374 kts | 99° |
| 2026-05-07 05:13 | 53.01362 | -6.80104 | 16124 ft | 371 kts | 99° |
| 2026-05-07 05:13 | 53.01034 | -6.75872 | 15652 ft | 368 kts | 99° |
| 2026-05-07 05:13 | 53.00708 | -6.71678 | 15185 ft | 365 kts | 98° |
| 2026-05-07 05:14 | 53.00807 | -6.67482 | 14704 ft | 366 kts | 77° |
| 2026-05-07 05:14 | 53.01782 | -6.63626 | 14408 ft | 361 kts | 57° |
| 2026-05-07 05:14 | 53.03379 | -6.60432 | 14030 ft | 360 kts | 46° |
| 2026-05-07 05:14 | 53.05128 | -6.57437 | 13549 ft | 362 kts | 45° |
| 2026-05-07 05:15 | 53.06896 | -6.54459 | 13031 ft | 363 kts | 45° |
| 2026-05-07 05:15 | 53.08662 | -6.51459 | 12543 ft | 361 kts | 45° |
| 2026-05-07 05:15 | 53.10400 | -6.48463 | 12040 ft | 359 kts | 46° |
| 2026-05-07 05:15 | 53.12117 | -6.45474 | 11577 ft | 357 kts | 46° |
| 2026-05-07 05:16 | 53.13824 | -6.42486 | 11104 ft | 355 kts | 46° |
| 2026-05-07 05:16 | 53.15496 | -6.39485 | 10744 ft | 350 kts | 52° |
| 2026-05-07 05:16 | 53.16610 | -6.35975 | 10583 ft | 339 kts | 74° |
| 2026-05-07 05:16 | 53.16943 | -6.32171 | 10411 ft | 328 kts | 92° |
| 2026-05-07 05:17 | 53.16796 | -6.28449 | 10261 ft | 318 kts | 97° |
| 2026-05-07 05:17 | 53.16581 | -6.24828 | 10110 ft | 309 kts | 97° |
| 2026-05-07 05:17 | 53.16366 | -6.21314 | 9985 ft | 301 kts | 97° |
| 2026-05-07 05:17 | 53.16169 | -6.17899 | 9949 ft | 290 kts | 97° |
| 2026-05-07 05:18 | 53.15985 | -6.14556 | 9490 ft | 295 kts | 97° |
| 2026-05-07 05:18 | 53.15803 | -6.11162 | 9169 ft | 294 kts | 97° |
| 2026-05-07 05:18 | 53.15623 | -6.07774 | 8834 ft | 293 kts | 97° |
| 2026-05-07 05:18 | 53.15444 | -6.04422 | 8513 ft | 287 kts | 97° |
| 2026-05-07 05:19 | 53.15269 | -6.01147 | 8212 ft | 280 kts | 97° |
| 2026-05-07 05:19 | 53.15097 | -5.97959 | 7926 ft | 273 kts | 97° |
| 2026-05-07 05:19 | 53.14928 | -5.94829 | 7665 ft | 270 kts | 97° |
| 2026-05-07 05:19 | 53.14759 | -5.91721 | 7394 ft | 269 kts | 97° |
| 2026-05-07 05:20 | 53.14590 | -5.88637 | 7263 ft | 263 kts | 97° |
| 2026-05-07 05:20 | 53.14425 | -5.85637 | 7140 ft | 257 kts | 97° |
| 2026-05-07 05:20 | 53.14264 | -5.82707 | 7016 ft | 251 kts | 97° |
| 2026-05-07 05:20 | 53.14445 | -5.79869 | 6975 ft | 247 kts | 71° |
| 2026-05-07 05:21 | 53.15196 | -5.77315 | 6978 ft | 245 kts | 62° |
| 2026-05-07 05:21 | 53.16937 | -5.72384 | 6989 ft | 250 kts | 62° |
| 2026-05-07 05:21 | 53.17814 | -5.69858 | 6987 ft | 253 kts | 62° |
| 2026-05-07 05:22 | 53.18688 | -5.67316 | 6974 ft | 252 kts | 62° |
| 2026-05-07 05:22 | 53.19563 | -5.64788 | 6970 ft | 252 kts | 58° |
| 2026-05-07 05:22 | 53.20802 | -5.62748 | 6993 ft | 251 kts | 36° |
| 2026-05-07 05:22 | 53.22225 | -5.61050 | 6981 ft | 251 kts | 37° |
| 2026-05-07 05:23 | 53.23638 | -5.59336 | 6982 ft | 251 kts | 37° |
| 2026-05-07 05:23 | 53.25050 | -5.57604 | 6982 ft | 252 kts | 37° |
| 2026-05-07 05:23 | 53.26461 | -5.55864 | 6980 ft | 253 kts | 37° |
| 2026-05-07 05:23 | 53.27875 | -5.54117 | 6980 ft | 253 kts | 37° |
| 2026-05-07 05:24 | 53.29375 | -5.52584 | 6962 ft | 254 kts | 18° |
| 2026-05-07 05:24 | 53.31087 | -5.51916 | 6989 ft | 253 kts | 11° |
| 2026-05-07 05:24 | 53.32868 | -5.51811 | 6620 ft | 264 kts | 341° |
| 2026-05-07 05:24 | 53.34347 | -5.53406 | 6384 ft | 249 kts | 307° |
| 2026-05-07 05:25 | 53.35388 | -5.55607 | 6219 ft | 235 kts | 305° |
| 2026-05-07 05:25 | 53.36373 | -5.57678 | 6050 ft | 220 kts | 305° |
| 2026-05-07 05:25 | 53.37309 | -5.59617 | 5861 ft | 210 kts | 306° |
| 2026-05-07 05:25 | 53.38219 | -5.61481 | 5709 ft | 204 kts | 306° |
| 2026-05-07 05:26 | 53.39118 | -5.63313 | 5580 ft | 205 kts | 306° |
| 2026-05-07 05:26 | 53.40034 | -5.65168 | 5471 ft | 208 kts | 306° |
| 2026-05-07 05:26 | 53.40970 | -5.67056 | 5330 ft | 212 kts | 306° |
| 2026-05-07 05:26 | 53.41910 | -5.68941 | 5167 ft | 210 kts | 306° |
| 2026-05-07 05:27 | 53.42869 | -5.70863 | 5048 ft | 219 kts | 306° |
| 2026-05-07 05:27 | 53.43859 | -5.72845 | 4881 ft | 223 kts | 307° |
| 2026-05-07 05:27 | 53.44860 | -5.74847 | 4698 ft | 223 kts | 306° |
| 2026-05-07 05:27 | 53.45849 | -5.76824 | 4511 ft | 219 kts | 307° |
| 2026-05-07 05:28 | 53.46778 | -5.78813 | 4346 ft | 213 kts | 294° |
| 2026-05-07 05:28 | 53.47044 | -5.81143 | 4218 ft | 202 kts | 258° |
| 2026-05-07 05:28 | 53.46550 | -5.83285 | 4089 ft | 196 kts | 232° |
| 2026-05-07 05:28 | 53.45670 | -5.85025 | 3956 ft | 196 kts | 225° |
| 2026-05-07 05:29 | 53.44730 | -5.86690 | 3816 ft | 197 kts | 225° |
| 2026-05-07 05:29 | 53.43781 | -5.88367 | 3668 ft | 199 kts | 225° |
| 2026-05-07 05:29 | 53.42827 | -5.90061 | 3528 ft | 200 kts | 225° |
| 2026-05-07 05:29 | 53.41870 | -5.91767 | 3378 ft | 201 kts | 225° |
| 2026-05-07 05:30 | 53.40953 | -5.93517 | 3217 ft | 200 kts | 237° |
| 2026-05-07 05:30 | 53.40666 | -5.95781 | 3092 ft | 205 kts | 268° |
| 2026-05-07 05:30 | 53.40649 | -5.98166 | 3036 ft | 205 kts | 266° |
| 2026-05-07 05:30 | 53.40687 | -6.00516 | 2998 ft | 196 kts | 270° |
| 2026-05-07 05:31 | 53.40798 | -6.02727 | 2764 ft | 191 kts | 273° |
| 2026-05-07 05:31 | 53.40937 | -6.04850 | 2617 ft | 175 kts | 272° |
| 2026-05-07 05:31 | 53.41046 | -6.06786 | 2429 ft | 164 kts | 271° |
| 2026-05-07 05:31 | 53.41147 | -6.08676 | 2199 ft | 159 kts | 271° |
| 2026-05-07 05:32 | 53.41243 | -6.10504 | 1992 ft | 160 kts | 271° |
| 2026-05-07 05:32 | 53.41343 | -6.12397 | 1777 ft | 162 kts | 271° |
| 2026-05-07 05:32 | 53.41443 | -6.14268 | 1535 ft | 159 kts | 271° |
| 2026-05-07 05:32 | 53.41508 | -6.15453 | 1406 ft | 151 kts | 271° |
| 2026-05-07 05:33 | 53.41629 | -6.17721 | 1119 ft | 148 kts | 272° |
| 2026-05-07 05:33 | 53.41722 | -6.19451 | 923 ft | 150 kts | 273° |
| 2026-05-07 05:33 | 53.41793 | -6.20617 | 831 ft | 149 kts | 273° |
| 2026-05-07 05:33 | 53.41909 | -6.22874 | 490 ft | 145 kts | 272° |
| 2026-05-07 05:34 | 53.41995 | -6.24549 | 264 ft | 144 kts | 274° |
| 2026-05-07 05:34 | 53.42058 | -6.25670 | 211 ft | 138 kts | 273° |
| 2026-05-07 05:34 | 53.42149 | -6.27257 | 218 ft | 71 kts | 275° |
| 2026-05-07 05:34 | 53.42188 | -6.27752 | 209 ft | 49 kts | 284° |
| 2026-05-07 05:35 | 53.42287 | -6.28074 | 213 ft | 23 kts | 310° |
| 2026-05-07 05:35 | 53.42359 | -6.28017 | 210 ft | 19 kts | 86° |
| 2026-05-07 05:35 | 53.42345 | -6.27753 | 210 ft | 24 kts | 96° |
| 2026-05-07 05:35 | 53.42330 | -6.27487 | 210 ft | 23 kts | 95° |
| 2026-05-07 05:36 | 53.42316 | -6.27231 | 210 ft | 22 kts | 95° |
| 2026-05-07 05:36 | 53.42303 | -6.26980 | 210 ft | 21 kts | 95° |
| 2026-05-07 05:36 | 53.42292 | -6.26736 | 210 ft | 21 kts | 95° |
| 2026-05-07 05:36 | 53.42279 | -6.26500 | 213 ft | 20 kts | 96° |
| 2026-05-07 05:37 | 53.42267 | -6.26275 | 210 ft | 19 kts | 90° |
| 2026-05-07 05:37 | 53.42317 | -6.26063 | 210 ft | 24 kts | 46° |
| 2026-05-07 05:37 | 53.42422 | -6.25890 | 219 ft | 14 kts | 40° |
| 2026-05-07 05:37 | 53.42495 | -6.25943 | 215 ft | 14 kts | 276° |
| 2026-05-07 05:38 | 53.42470 | -6.26022 | 214 ft | 3 kts | 228° |
| 2026-05-07 05:38 | 53.42475 | -6.26135 | 210 ft | 18 kts | 284° |
| 2026-05-07 05:38 | 53.42491 | -6.26301 | 210 ft | 8 kts | 236° |
| 2026-05-07 05:38 | 53.42440 | -6.26327 | 210 ft | 3 kts | 187° |
| 2026-05-07 05:39 | 53.42439 | -6.26327 | 219 ft | 0 kts | 187° |